Time;durP1;ratioP1;P1;durP2;ratioP2;P2;SDS_P1;SDS_P2;PMS_P1;PMS_P2;Temp;Humidity;BMP_temperature;BMP_pressure;BME280_temperature;BME280_humidity;BME280_pressure;Samples;Min_cycle;Max_cycle;Signal;HPM_P1;HPM_P2
2021/12/04 00:00:25;;;;;;;27.20;25.40;;;;;;;;;;5108062;28;20686;-83
2021/12/04 00:02:53;;;;;;;26.38;24.73;;;;;;;;;;5115488;28;20573;-83
2021/12/04 00:05:22;;;;;;;25.98;24.27;;;;;;;;;;5115246;28;20259;-83
2021/12/04 00:07:51;;;;;;;26.85;25.00;;;;;;;;;;5114631;28;20651;-83
2021/12/04 00:10:27;;;;;;;26.65;24.85;;;;;;;;;;5115183;28;20204;-83
2021/12/04 00:12:54;;;;;;;25.83;24.30;;;;;;;;;;5115081;28;20651;-83
2021/12/04 00:15:21;;;;;;;26.00;24.20;;;;;;;;;;5114864;28;20616;-83
2021/12/04 00:17:49;;;;;;;26.30;24.60;;;;;;;;;;5114959;28;20219;-83
2021/12/04 00:20:16;;;;;;;24.75;23.35;;;;;;;;;;5114937;28;20255;-84
2021/12/04 00:22:44;;;;;;;26.20;24.40;;;;;;;;;;5114961;28;20258;-83
2021/12/04 00:25:12;;;;;;;25.83;24.23;;;;;;;;;;5114531;28;20207;-83
2021/12/04 00:27:40;;;;;;;26.77;24.98;;;;;;;;;;5114697;28;20555;-83
2021/12/04 00:30:08;;;;;;;25.90;24.08;;;;;;;;;;5114867;28;20196;-83
2021/12/04 00:32:40;;;;;;;26.05;24.20;;;;;;;;;;5114563;28;20239;-83
2021/12/04 00:35:13;;;;;;;26.25;24.55;;;;;;;;;;5114723;28;20647;-83
2021/12/04 00:49:11;;;;;;;25.75;24.05;;;;;;;;;;4877804;29;20271;-83
2021/12/04 00:51:40;;;;;;;25.35;23.85;;;;;;;;;;4877809;29;20207;-83
2021/12/04 00:54:10;;;;;;;26.75;24.73;;;;;;;;;;4877955;29;20201;-83
2021/12/04 00:56:39;;;;;;;27.05;25.25;;;;;;;;;;4877805;29;20659;-83
2021/12/04 00:59:07;;;;;;;26.10;24.30;;;;;;;;;;4877965;29;20267;-84
2021/12/04 01:01:35;;;;;;;25.23;23.48;;;;;;;;;;4862495;29;20575;-84
2021/12/04 01:04:02;;;;;;;27.58;25.67;;;;;;;;;;4877691;29;20682;-83
2021/12/04 01:06:29;;;;;;;26.92;24.80;;;;;;;;;;4877687;29;20243;-83
2021/12/04 01:08:57;;;;;;;25.48;23.83;;;;;;;;;;4877654;29;20231;-83
2021/12/04 01:11:24;;;;;;;24.90;23.23;;;;;;;;;;4877811;29;20208;-84
2021/12/04 01:13:53;;;;;;;26.35;24.65;;;;;;;;;;4896334;29;20619;-83
2021/12/04 01:16:20;;;;;;;25.45;23.95;;;;;;;;;;4966482;28;20315;-83
2021/12/04 01:18:48;;;;;;;26.10;24.30;;;;;;;;;;5031431;28;20209;-84
2021/12/04 01:21:15;;;;;;;26.40;24.48;;;;;;;;;;5039721;28;20217;-83
2021/12/04 01:23:42;;;;;;;26.17;24.48;;;;;;;;;;5113410;28;20633;-83
2021/12/04 01:26:10;;;;;;;25.70;24.10;;;;;;;;;;5113625;28;20196;-84
2021/12/04 01:28:37;;;;;;;25.70;24.10;;;;;;;;;;5113495;28;20222;-83
2021/12/04 01:31:06;;;;;;;26.40;24.65;;;;;;;;;;5113701;28;20199;-83
2021/12/04 01:33:33;;;;;;;28.15;26.30;;;;;;;;;;5095552;28;20260;-83
2021/12/04 01:36:01;;;;;;;27.27;25.40;;;;;;;;;;5113392;28;20193;-84
2021/12/04 01:38:28;;;;;;;28.70;26.35;;;;;;;;;;5113459;28;20721;-83
2021/12/04 01:40:55;;;;;;;26.33;24.63;;;;;;;;;;5113151;28;20192;-83
2021/12/04 01:43:23;;;;;;;27.70;25.90;;;;;;;;;;5113312;28;20200;-83
2021/12/04 01:45:50;;;;;;;26.05;24.42;;;;;;;;;;5113183;28;20253;-83
2021/12/04 01:48:19;;;;;;;28.38;26.08;;;;;;;;;;5113096;28;20218;-83
2021/12/04 01:50:47;;;;;;;26.40;24.48;;;;;;;;;;5113291;28;20665;-83
2021/12/04 01:53:14;;;;;;;26.80;24.80;;;;;;;;;;5113391;28;20191;-83
2021/12/04 01:55:41;;;;;;;26.10;24.40;;;;;;;;;;5113667;28;20208;-82
2021/12/04 01:58:09;;;;;;;26.80;25.00;;;;;;;;;;5113100;28;20619;-83
2021/12/04 02:00:39;;;;;;;26.40;24.70;;;;;;;;;;5098859;28;20303;-82
2021/12/04 02:03:09;;;;;;;25.00;23.30;;;;;;;;;;5092980;28;20262;-84
2021/12/04 02:05:38;;;;;;;26.85;25.02;;;;;;;;;;5092653;28;20188;-83
2021/12/04 02:08:06;;;;;;;26.95;25.25;;;;;;;;;;5092397;28;20915;-83
2021/12/04 02:10:33;;;;;;;25.38;23.77;;;;;;;;;;5092665;28;20228;-83
2021/12/04 02:13:01;;;;;;;26.33;24.65;;;;;;;;;;5092659;28;20192;-84
2021/12/04 02:15:29;;;;;;;26.70;24.88;;;;;;;;;;5092382;28;20197;-82
2021/12/04 02:17:57;;;;;;;27.15;24.90;;;;;;;;;;5092900;28;20324;-84
2021/12/04 02:20:27;;;;;;;27.48;25.48;;;;;;;;;;5092445;28;20672;-84
2021/12/04 02:22:55;;;;;;;26.83;24.73;;;;;;;;;;5092456;28;20199;-84
2021/12/04 02:25:22;;;;;;;27.83;25.90;;;;;;;;;;5092787;28;20193;-84
2021/12/04 02:27:50;;;;;;;27.83;25.92;;;;;;;;;;5093609;28;20208;-83
2021/12/04 02:30:18;;;;;;;29.55;27.25;;;;;;;;;;5096959;28;20625;-83
2021/12/04 02:32:46;;;;;;;25.52;23.92;;;;;;;;;;5096624;28;20545;-83
2021/12/04 02:35:14;;;;;;;28.08;26.10;;;;;;;;;;5096570;28;20599;-84
2021/12/04 02:37:43;;;;;;;27.77;25.85;;;;;;;;;;5096500;28;20213;-83
2021/12/04 02:40:11;;;;;;;28.65;26.55;;;;;;;;;;5096261;28;20531;-83
2021/12/04 02:42:39;;;;;;;26.60;24.60;;;;;;;;;;5096326;28;20241;-83
2021/12/04 02:45:08;;;;;;;28.48;26.50;;;;;;;;;;5096268;28;20293;-83
2021/12/04 02:47:35;;;;;;;29.17;27.00;;;;;;;;;;5096117;28;20253;-83
2021/12/04 02:50:05;;;;;;;29.15;26.80;;;;;;;;;;5096071;28;20196;-83
2021/12/04 02:52:33;;;;;;;28.90;26.80;;;;;;;;;;5096318;28;20208;-83
2021/12/04 02:55:01;;;;;;;28.40;25.92;;;;;;;;;;5096359;28;20613;-84
2021/12/04 02:57:29;;;;;;;31.25;28.65;;;;;;;;;;5095905;28;20211;-82
2021/12/04 02:59:56;;;;;;;30.40;27.90;;;;;;;;;;5104343;28;20560;-84
2021/12/04 03:02:25;;;;;;;29.27;27.08;;;;;;;;;;5116154;28;20187;-83
2021/12/04 03:04:53;;;;;;;29.58;27.25;;;;;;;;;;5116099;28;20658;-83
2021/12/04 03:07:21;;;;;;;29.00;26.75;;;;;;;;;;5116193;28;20230;-83
2021/12/04 03:09:48;;;;;;;27.85;25.90;;;;;;;;;;5115988;28;20213;-83
2021/12/04 03:12:20;;;;;;;27.48;25.48;;;;;;;;;;5116232;28;20211;-83
2021/12/04 03:14:47;;;;;;;28.95;26.65;;;;;;;;;;5116254;28;20610;-83
2021/12/04 03:17:18;;;;;;;27.70;25.65;;;;;;;;;;5116122;28;20199;-83
2021/12/04 03:19:45;;;;;;;27.40;25.30;;;;;;;;;;5116193;28;20584;-84
2021/12/04 03:22:14;;;;;;;28.23;25.98;;;;;;;;;;5116248;28;20187;-82
2021/12/04 03:24:43;;;;;;;28.23;26.13;;;;;;;;;;5115676;28;20299;-83
2021/12/04 03:27:11;;;;;;;27.63;25.73;;;;;;;;;;5115823;28;20209;-83
2021/12/04 03:29:42;;;;;;;28.02;26.02;;;;;;;;;;5115980;28;20327;-83
2021/12/04 03:40:36;;;;;;;25.67;24.05;;;;;;;;;;5115623;28;20186;-83
2021/12/04 03:43:05;;;;;;;26.38;24.38;;;;;;;;;;5115489;28;20188;-83
2021/12/04 03:45:35;;;;;;;26.27;24.58;;;;;;;;;;5115476;28;20638;-84
2021/12/04 03:48:08;;;;;;;26.45;24.42;;;;;;;;;;5115514;28;20548;-83
2021/12/04 03:50:36;;;;;;;26.20;24.50;;;;;;;;;;5115727;28;20239;-83
2021/12/04 03:53:03;;;;;;;26.77;24.85;;;;;;;;;;5115627;28;20215;-83
2021/12/04 03:55:30;;;;;;;23.73;21.80;;;;;;;;;;5115406;28;20204;-83
2021/12/04 03:57:58;;;;;;;27.42;25.08;;;;;;;;;;5115278;28;20188;-83
2021/12/04 04:00:28;;;;;;;28.08;26.23;;;;;;;;;;5096945;28;20259;-83
2021/12/04 04:02:57;;;;;;;26.88;24.88;;;;;;;;;;5115250;28;20725;-84
2021/12/04 04:05:25;;;;;;;26.40;24.60;;;;;;;;;;5115595;28;20220;-85
2021/12/04 04:07:52;;;;;;;27.73;25.73;;;;;;;;;;5096926;28;20235;-84
2021/12/04 04:10:20;;;;;;;29.95;27.20;;;;;;;;;;5115604;28;20215;-85
2021/12/04 04:12:48;;;;;;;27.05;25.15;;;;;;;;;;5115279;28;20268;-84
2021/12/04 04:15:15;;;;;;;27.40;25.50;;;;;;;;;;5115174;28;20247;-85
2021/12/04 04:17:43;;;;;;;27.35;25.45;;;;;;;;;;5115427;28;20209;-84
2021/12/04 04:20:14;;;;;;;28.10;26.20;;;;;;;;;;5115306;28;20199;-84
2021/12/04 04:22:42;;;;;;;25.50;23.80;;;;;;;;;;5115297;28;20211;-84
2021/12/04 04:25:10;;;;;;;27.15;25.35;;;;;;;;;;5115279;28;20196;-85
2021/12/04 04:27:38;;;;;;;27.40;25.58;;;;;;;;;;5114857;28;20193;-84
2021/12/04 04:30:06;;;;;;;25.90;24.20;;;;;;;;;;5114743;28;20238;-84
2021/12/04 04:32:34;;;;;;;26.05;24.35;;;;;;;;;;5114865;28;20271;-84
2021/12/04 04:35:07;;;;;;;27.60;25.85;;;;;;;;;;5096849;28;20203;-84
2021/12/04 04:37:41;;;;;;;27.15;25.35;;;;;;;;;;5114855;28;20229;-84
2021/12/04 04:59:38;;;;;;;26.00;24.38;;;;;;;;;;5114402;28;20224;-83
2021/12/04 05:10:34;;;;;;;30.00;27.85;;;;;;;;;;5114110;28;20224;-83
2021/12/04 05:13:03;;;;;;;25.20;23.60;;;;;;;;;;5095960;28;20277;-84
2021/12/04 05:15:37;;;;;;;33.58;31.00;;;;;;;;;;5114147;28;20571;-84
2021/12/04 05:18:11;;;;;;;27.58;25.65;;;;;;;;;;5114355;28;20197;-84
2021/12/04 05:20:40;;;;;;;26.05;24.15;;;;;;;;;;5113995;28;20238;-84
2021/12/04 05:23:10;;;;;;;24.77;23.27;;;;;;;;;;5114096;28;20291;-84
2021/12/04 05:25:38;;;;;;;25.75;23.95;;;;;;;;;;5114265;28;20184;-83
2021/12/04 05:28:06;;;;;;;31.05;28.92;;;;;;;;;;5114344;28;20193;-84
2021/12/04 05:30:34;;;;;;;33.65;31.25;;;;;;;;;;5113908;28;20296;-84
2021/12/04 05:33:01;;;;;;;33.05;30.65;;;;;;;;;;5114068;28;20529;-85
2021/12/04 05:35:28;;;;;;;26.27;24.65;;;;;;;;;;5113774;28;20186;-84
2021/12/04 05:37:56;;;;;;;29.58;27.63;;;;;;;;;;5113882;28;20200;-84
2021/12/04 05:40:23;;;;;;;26.75;24.85;;;;;;;;;;5113717;28;20192;-84
2021/12/04 05:42:59;;;;;;;31.08;28.65;;;;;;;;;;5113662;28;20221;-85
2021/12/04 05:45:27;;;;;;;35.00;32.50;;;;;;;;;;5113524;28;20235;-83
2021/12/04 05:47:59;;;;;;;35.40;33.05;;;;;;;;;;5113799;28;20198;-84
2021/12/04 05:50:42;;;;;;;38.08;35.17;;;;;;;;;;5113387;28;20706;-83
2021/12/04 05:53:19;;;;;;;29.80;27.80;;;;;;;;;;5113628;28;20200;-84
2021/12/04 05:55:53;;;;;;;26.48;24.58;;;;;;;;;;5113633;28;20216;-85
2021/12/04 05:58:26;;;;;;;27.42;25.73;;;;;;;;;;5113310;28;20667;-84
2021/12/04 06:00:54;;;;;;;25.42;23.88;;;;;;;;;;5097818;28;20559;-84
2021/12/04 06:03:21;;;;;;;23.90;22.50;;;;;;;;;;5092686;28;20215;-83
2021/12/04 06:05:49;;;;;;;26.65;24.85;;;;;;;;;;5092911;28;20213;-84
2021/12/04 06:08:16;;;;;;;26.40;24.63;;;;;;;;;;5093054;28;20263;-85
2021/12/04 06:10:44;;;;;;;27.13;25.33;;;;;;;;;;5092631;28;20221;-86
2021/12/04 06:13:11;;;;;;;29.52;27.60;;;;;;;;;;5093153;28;20212;-84
2021/12/04 06:15:40;;;;;;;25.95;24.35;;;;;;;;;;5092941;28;20212;-84
2021/12/04 06:18:08;;;;;;;26.20;24.50;;;;;;;;;;5092940;28;20205;-83
2021/12/04 06:23:20;;;;;;;24.88;23.27;;;;;;;;;;5093020;28;20600;-85
2021/12/04 06:25:47;;;;;;;26.23;24.35;;;;;;;;;;5092720;28;20231;-84
2021/12/04 06:28:15;;;;;;;27.40;25.70;;;;;;;;;;5092775;28;20200;-84
2021/12/04 06:30:44;;;;;;;27.83;26.10;;;;;;;;;;5092597;28;20686;-84
2021/12/04 06:33:13;;;;;;;25.70;24.05;;;;;;;;;;5092788;28;20199;-83
2021/12/04 06:35:41;;;;;;;27.02;25.33;;;;;;;;;;5092859;28;20274;-84
2021/12/04 06:38:09;;;;;;;25.48;23.67;;;;;;;;;;5092846;28;20209;-84
2021/12/04 06:40:36;;;;;;;25.15;23.55;;;;;;;;;;5092766;28;20196;-84
2021/12/04 06:43:04;;;;;;;25.70;23.95;;;;;;;;;;5092647;28;20282;-84
2021/12/04 06:45:33;;;;;;;26.50;24.80;;;;;;;;;;5092355;28;20185;-84
2021/12/04 06:48:05;;;;;;;25.05;23.45;;;;;;;;;;5092473;28;20228;-84
2021/12/04 06:50:39;;;;;;;29.15;26.95;;;;;;;;;;5092748;28;20220;-83
2021/12/04 06:53:14;;;;;;;24.10;22.60;;;;;;;;;;5092740;28;20295;-82
2021/12/04 06:55:45;;;;;;;28.65;26.70;;;;;;;;;;5092598;28;20547;-84
2021/12/04 06:58:12;;;;;;;27.15;25.25;;;;;;;;;;5092741;28;20213;-84
2021/12/04 07:00:40;;;;;;;27.92;26.00;;;;;;;;;;5074160;28;20748;-84
2021/12/04 07:03:08;;;;;;;29.80;27.67;;;;;;;;;;5092410;28;20193;-83
2021/12/04 07:05:36;;;;;;;28.85;26.80;;;;;;;;;;5092868;28;20197;-84
2021/12/04 07:08:05;;;;;;;28.20;26.20;;;;;;;;;;5092230;28;20294;-83
2021/12/04 07:10:32;;;;;;;28.00;26.08;;;;;;;;;;5091873;28;20255;-84
2021/12/04 07:12:59;;;;;;;28.40;26.40;;;;;;;;;;5092466;28;20621;-84
2021/12/04 07:15:29;;;;;;;29.30;27.25;;;;;;;;;;5095729;28;20219;-83
2021/12/04 07:17:58;;;;;;;29.40;26.70;;;;;;;;;;5095648;28;20628;-84
2021/12/04 07:20:26;;;;;;;28.90;26.70;;;;;;;;;;5095808;28;20192;-83
2021/12/04 07:22:54;;;;;;;28.60;26.55;;;;;;;;;;5095707;28;20209;-85
2021/12/04 07:25:21;;;;;;;29.33;27.30;;;;;;;;;;5095978;28;20189;-84
2021/12/04 07:27:50;;;;;;;28.55;26.60;;;;;;;;;;5095972;28;20193;-84
2021/12/04 07:30:18;;;;;;;28.13;25.67;;;;;;;;;;5095987;28;20232;-83
2021/12/04 07:32:45;;;;;;;28.20;26.20;;;;;;;;;;5095682;28;20196;-84
2021/12/04 07:35:13;;;;;;;27.75;25.33;;;;;;;;;;5095915;28;20582;-84
2021/12/04 07:37:42;;;;;;;28.70;26.70;;;;;;;;;;5095536;28;20208;-84
2021/12/04 07:40:11;;;;;;;28.70;26.60;;;;;;;;;;5095691;28;20195;-87
2021/12/04 07:42:38;;;;;;;28.73;26.73;;;;;;;;;;5096235;28;20199;-87
2021/12/04 07:45:07;;;;;;;29.02;26.85;;;;;;;;;;5095743;28;20270;-88
2021/12/04 07:47:34;;;;;;;28.15;25.98;;;;;;;;;;5095675;28;20211;-85
2021/12/04 07:50:02;;;;;;;29.02;26.92;;;;;;;;;;5095476;28;21048;-83
2021/12/04 07:52:29;;;;;;;29.73;27.48;;;;;;;;;;5095523;28;20248;-87
2021/12/04 07:54:58;;;;;;;28.50;26.40;;;;;;;;;;5095842;28;20198;-87
2021/12/04 07:57:26;;;;;;;31.17;28.42;;;;;;;;;;5095511;28;20215;-87
2021/12/04 07:59:53;;;;;;;28.27;26.30;;;;;;;;;;5101392;28;20203;-88
2021/12/04 08:02:21;;;;;;;29.60;27.40;;;;;;;;;;5115053;28;20203;-91
2021/12/04 08:04:48;;;;;;;31.15;28.85;;;;;;;;;;5116006;28;20652;-95
2021/12/04 08:07:15;;;;;;;29.80;27.40;;;;;;;;;;5097878;28;20231;-93
2021/12/04 08:09:43;;;;;;;31.48;29.02;;;;;;;;;;5116527;28;20762;-87
2021/12/04 08:12:13;;;;;;;28.40;26.13;;;;;;;;;;5115868;28;20193;-87
2021/12/04 08:14:41;;;;;;;28.65;26.55;;;;;;;;;;5115623;28;20220;-90
2021/12/04 08:17:08;;;;;;;28.85;26.55;;;;;;;;;;5117072;28;20191;-86
2021/12/04 08:19:36;;;;;;;29.60;27.38;;;;;;;;;;5115370;28;20195;-83
2021/12/04 08:22:04;;;;;;;28.92;26.73;;;;;;;;;;5114944;28;20211;-87
2021/12/04 08:24:31;;;;;;;29.60;27.48;;;;;;;;;;5115394;28;20193;-91
2021/12/04 08:26:59;;;;;;;29.90;27.40;;;;;;;;;;5115649;28;20189;-90
2021/12/04 08:29:28;;;;;;;28.55;26.38;;;;;;;;;;5115827;28;20215;-91
2021/12/04 08:31:55;;;;;;;28.15;26.15;;;;;;;;;;5115862;28;20192;-85
2021/12/04 08:34:23;;;;;;;30.13;27.83;;;;;;;;;;5115266;28;20253;-82
2021/12/04 08:36:52;;;;;;;29.23;27.10;;;;;;;;;;5115601;28;20204;-85
2021/12/04 08:39:20;;;;;;;30.50;28.05;;;;;;;;;;5115235;28;20271;-85
2021/12/04 08:41:47;;;;;;;30.65;28.48;;;;;;;;;;5114817;28;20188;-84
2021/12/04 08:44:15;;;;;;;28.63;26.63;;;;;;;;;;5115146;28;20523;-85
2021/12/04 08:46:43;;;;;;;28.85;26.67;;;;;;;;;;5114835;28;20207;-84
2021/12/04 08:49:11;;;;;;;29.95;27.75;;;;;;;;;;5114634;28;20324;-86
2021/12/04 08:51:38;;;;;;;28.52;26.42;;;;;;;;;;5114681;28;20235;-85
2021/12/04 08:54:06;;;;;;;28.73;26.70;;;;;;;;;;5114340;28;20192;-88
2021/12/04 08:56:33;;;;;;;28.10;26.20;;;;;;;;;;5114601;28;20192;-86
2021/12/04 08:59:01;;;;;;;28.70;26.42;;;;;;;;;;5114409;28;20187;-84
2021/12/04 09:01:30;;;;;;;28.35;26.25;;;;;;;;;;5114149;28;20223;-87
2021/12/04 09:04:02;;;;;;;30.83;28.42;;;;;;;;;;5114373;28;20295;-84
2021/12/04 09:06:30;;;;;;;27.73;25.30;;;;;;;;;;5114032;28;20710;-84
2021/12/04 09:08:58;;;;;;;29.33;27.17;;;;;;;;;;5114344;28;20241;-83
2021/12/04 09:11:27;;;;;;;29.33;27.10;;;;;;;;;;5113303;28;20230;-83
2021/12/04 09:13:55;;;;;;;27.38;25.38;;;;;;;;;;5113976;28;20192;-85
2021/12/04 09:16:24;;;;;;;29.08;27.08;;;;;;;;;;5114483;28;20190;-84
2021/12/04 09:18:52;;;;;;;27.65;25.60;;;;;;;;;;5113814;28;20190;-87
2021/12/04 09:21:23;;;;;;;29.30;26.92;;;;;;;;;;5114451;28;20546;-84
2021/12/04 09:23:54;;;;;;;29.40;27.00;;;;;;;;;;5113782;28;20666;-85
2021/12/04 09:26:38;;;;;;;29.77;27.67;;;;;;;;;;5096093;28;20201;-85
2021/12/04 09:29:11;;;;;;;27.30;25.30;;;;;;;;;;5114007;28;20188;-83
2021/12/04 10:02:15;;;;;;;29.80;27.60;;;;;;;;;;5090440;28;20208;-78
2021/12/04 10:05:12;;;;;;;28.33;26.30;;;;;;;;;;5092158;28;20262;-77
2021/12/04 10:22:05;;;;;;;28.55;26.55;;;;;;;;;;5090572;28;20262;-78
2021/12/04 10:33:08;;;;;;;29.48;27.38;;;;;;;;;;5091480;28;20184;-78
2021/12/04 10:35:36;;;;;;;27.23;25.30;;;;;;;;;;5091820;28;20192;-78
2021/12/04 10:38:05;;;;;;;28.00;26.00;;;;;;;;;;5091981;28;20662;-78
2021/12/04 10:40:37;;;;;;;27.87;26.00;;;;;;;;;;5091856;28;20251;-77
2021/12/04 10:43:09;;;;;;;26.83;24.98;;;;;;;;;;5091834;28;20447;-78
2021/12/04 10:45:40;;;;;;;28.95;26.85;;;;;;;;;;5091325;28;20188;-78
2021/12/04 10:48:10;;;;;;;27.20;25.40;;;;;;;;;;5091692;28;20296;-77
2021/12/04 10:50:43;;;;;;;26.02;24.13;;;;;;;;;;5095420;28;20228;-76
2021/12/04 10:53:14;;;;;;;27.55;25.65;;;;;;;;;;5095268;28;20650;-77
2021/12/04 10:55:46;;;;;;;25.52;23.83;;;;;;;;;;5077793;28;20562;-77
2021/12/04 11:01:07;;;;;;;29.85;27.65;;;;;;;;;;5108580;28;20230;-76
2021/12/04 11:03:40;;;;;;;28.05;26.10;;;;;;;;;;5115606;28;20661;-76
2021/12/04 11:42:21;;;;;;;28.15;26.05;;;;;;;;;;4989649;28;20576;-77
2021/12/04 11:44:51;;;;;;;26.85;25.05;;;;;;;;;;5031682;28;20371;-77
2021/12/04 11:47:20;;;;;;;26.45;24.75;;;;;;;;;;5031922;28;20561;-77
2021/12/04 11:49:47;;;;;;;26.00;24.40;;;;;;;;;;5031610;28;20202;-76
2021/12/04 11:52:16;;;;;;;27.13;25.20;;;;;;;;;;5031947;28;20635;-76
2021/12/04 11:54:49;;;;;;;26.67;24.88;;;;;;;;;;5031991;28;20195;-83
2021/12/04 11:57:18;;;;;;;27.30;25.40;;;;;;;;;;5084529;28;20207;-75
2021/12/04 11:59:46;;;;;;;27.23;25.42;;;;;;;;;;5111540;28;20223;-76
2021/12/04 12:02:18;;;;;;;26.83;25.03;;;;;;;;;;5094024;28;20201;-76
2021/12/04 12:04:50;;;;;;;25.45;23.85;;;;;;;;;;5094251;28;20435;-76
2021/12/04 12:07:19;;;;;;;27.02;25.33;;;;;;;;;;5093797;28;20241;-76
2021/12/04 12:09:47;;;;;;;25.23;23.73;;;;;;;;;;5094133;28;20189;-76
2021/12/04 12:12:16;;;;;;;26.83;25.05;;;;;;;;;;5093733;28;20233;-76
2021/12/04 12:14:48;;;;;;;24.70;23.20;;;;;;;;;;5075440;28;20653;-76
2021/12/04 12:17:17;;;;;;;25.55;23.85;;;;;;;;;;5093993;28;20196;-76
2021/12/04 12:19:52;;;;;;;24.80;23.23;;;;;;;;;;5093949;28;20653;-79
2021/12/04 12:22:34;;;;;;;25.30;23.73;;;;;;;;;;5093637;28;20637;-77
2021/12/04 12:25:18;;;;;;;26.25;24.65;;;;;;;;;;5093558;28;20447;-77
2021/12/04 12:27:56;;;;;;;33.30;30.55;;;;;;;;;;5093229;28;20288;-77
2021/12/04 12:33:18;;;;;;;25.33;23.83;;;;;;;;;;5093417;28;20423;-77
2021/12/04 12:36:04;;;;;;;26.50;24.90;;;;;;;;;;5093454;28;20254;-77
2021/12/04 12:38:34;;;;;;;25.55;23.95;;;;;;;;;;5093447;28;20737;-77
2021/12/04 12:41:03;;;;;;;28.83;27.13;;;;;;;;;;5093088;28;20188;-77
2021/12/04 12:43:36;;;;;;;23.95;22.55;;;;;;;;;;5093287;28;20193;-77
2021/12/04 12:46:04;;;;;;;25.27;23.77;;;;;;;;;;5093292;28;20202;-77
2021/12/04 12:48:42;;;;;;;24.45;23.05;;;;;;;;;;5075488;28;20444;-77
2021/12/04 12:51:11;;;;;;;24.33;22.92;;;;;;;;;;5093008;28;20550;-77
2021/12/04 12:53:42;;;;;;;25.95;24.45;;;;;;;;;;5093509;28;20198;-77
2021/12/04 12:56:11;;;;;;;24.08;22.70;;;;;;;;;;5092981;28;20601;-77
2021/12/04 12:58:43;;;;;;;23.50;22.10;;;;;;;;;;5093306;28;20415;-77
2021/12/04 13:12:24;;;;;;;24.98;23.48;;;;;;;;;;5112306;28;20223;-77
2021/12/04 13:14:54;;;;;;;26.85;25.33;;;;;;;;;;5113318;28;20196;-76
2021/12/04 13:17:23;;;;;;;27.08;25.48;;;;;;;;;;5112889;28;20638;-77
2021/12/04 13:19:51;;;;;;;25.88;24.35;;;;;;;;;;5112991;28;20549;-77
2021/12/04 13:22:21;;;;;;;22.83;21.43;;;;;;;;;;5112892;28;20201;-76
2021/12/04 13:24:50;;;;;;;25.05;23.45;;;;;;;;;;5112930;28;20442;-77
2021/12/04 13:29:46;;;;;;;23.05;21.65;;;;;;;;;;5112873;28;20275;-77
2021/12/04 13:32:15;;;;;;;23.30;21.90;;;;;;;;;;5112786;28;20217;-77
2021/12/04 13:34:43;;;;;;;23.73;22.33;;;;;;;;;;5112673;28;20429;-76
2021/12/04 13:37:12;;;;;;;22.83;21.43;;;;;;;;;;5113018;28;20242;-77
2021/12/04 13:39:41;;;;;;;23.43;21.93;;;;;;;;;;5112595;28;20446;-77
2021/12/04 13:42:09;;;;;;;24.20;22.70;;;;;;;;;;5112695;28;20438;-77
2021/12/04 13:44:36;;;;;;;25.40;23.90;;;;;;;;;;5112533;28;20642;-76
2021/12/04 13:47:06;;;;;;;23.38;21.98;;;;;;;;;;5112413;28;20198;-77
2021/12/04 13:49:36;;;;;;;22.95;21.52;;;;;;;;;;5112496;28;20703;-78
2021/12/04 13:52:05;;;;;;;22.95;21.27;;;;;;;;;;5112472;28;20214;-78
2021/12/04 13:54:33;;;;;;;24.23;22.77;;;;;;;;;;5112566;28;20202;-77
2021/12/04 13:57:02;;;;;;;22.85;21.45;;;;;;;;;;5112350;28;20202;-77
2021/12/04 13:59:30;;;;;;;24.95;23.40;;;;;;;;;;5112517;28;20217;-78
2021/12/04 14:01:57;;;;;;;25.80;24.10;;;;;;;;;;5072032;28;20588;-77
2021/12/04 14:04:25;;;;;;;22.60;21.30;;;;;;;;;;5072039;28;20192;-77
2021/12/04 14:06:54;;;;;;;23.05;21.70;;;;;;;;;;5071462;28;20231;-77
2021/12/04 14:09:22;;;;;;;22.92;21.63;;;;;;;;;;5072045;28;20191;-77
2021/12/04 14:11:49;;;;;;;24.13;22.73;;;;;;;;;;5071871;28;20226;-77
2021/12/04 14:14:19;;;;;;;24.03;22.63;;;;;;;;;;5071831;28;20246;-77
2021/12/04 14:16:50;;;;;;;23.15;21.77;;;;;;;;;;5071738;28;20444;-77
2021/12/04 14:19:20;;;;;;;23.52;22.08;;;;;;;;;;5071591;28;20208;-77
2021/12/04 14:21:53;;;;;;;23.05;21.65;;;;;;;;;;5071552;28;20205;-77
2021/12/04 14:24:25;;;;;;;22.77;21.48;;;;;;;;;;5075664;28;20194;-78
2021/12/04 14:26:53;;;;;;;24.70;23.27;;;;;;;;;;5075422;28;20663;-78
2021/12/04 14:29:25;;;;;;;24.15;22.48;;;;;;;;;;5075597;28;20185;-76
2021/12/04 14:31:52;;;;;;;25.23;23.52;;;;;;;;;;5075544;28;20287;-77
2021/12/04 14:34:23;;;;;;;29.55;27.35;;;;;;;;;;5075384;28;20198;-80
2021/12/04 14:36:59;;;;;;;25.23;23.67;;;;;;;;;;5075576;28;20609;-80
2021/12/04 14:39:27;;;;;;;24.97;23.37;;;;;;;;;;5075733;28;20422;-82
2021/12/04 14:41:55;;;;;;;28.30;26.40;;;;;;;;;;5075439;28;20488;-80
2021/12/04 14:44:24;;;;;;;27.58;25.58;;;;;;;;;;5075159;28;20646;-80
2021/12/04 14:46:52;;;;;;;25.27;23.58;;;;;;;;;;5075183;28;20188;-80
2021/12/04 14:49:20;;;;;;;26.27;24.40;;;;;;;;;;5077568;28;20193;-80
2021/12/04 14:51:47;;;;;;;24.37;22.87;;;;;;;;;;5085573;28;20581;-80
2021/12/04 14:54:15;;;;;;;25.52;23.80;;;;;;;;;;5067668;28;20930;-80
2021/12/04 14:56:42;;;;;;;24.70;23.05;;;;;;;;;;5084270;28;20194;-81
2021/12/04 14:59:17;;;;;;;26.98;25.17;;;;;;;;;;5083695;28;20218;-80
2021/12/04 15:01:46;;;;;;;28.02;26.17;;;;;;;;;;5084471;28;20257;-79
2021/12/04 15:04:13;;;;;;;24.15;22.75;;;;;;;;;;5081936;28;20205;-85
2021/12/04 15:06:41;;;;;;;27.27;25.40;;;;;;;;;;5088068;28;20237;-86
2021/12/04 15:09:11;;;;;;;25.33;23.63;;;;;;;;;;5088132;28;20190;-88
2021/12/04 15:11:40;;;;;;;28.90;27.10;;;;;;;;;;5083199;28;20220;-89
2021/12/04 15:14:10;;;;;;;24.80;23.30;;;;;;;;;;5076009;28;20198;-88
2021/12/04 15:16:39;;;;;;;26.63;25.00;;;;;;;;;;5070136;28;20196;-86
2021/12/04 15:19:12;;;;;;;27.25;25.58;;;;;;;;;;5095628;28;20225;-89
2021/12/04 15:21:45;;;;;;;26.27;24.65;;;;;;;;;;5096769;28;20192;-88
2021/12/04 15:24:16;;;;;;;24.85;23.25;;;;;;;;;;5095346;28;20653;-79
2021/12/04 15:26:43;;;;;;;26.88;25.00;;;;;;;;;;5094119;28;20275;-84
2021/12/04 15:29:16;;;;;;;29.58;27.58;;;;;;;;;;5094469;28;20200;-78
2021/12/04 15:31:43;;;;;;;24.75;23.08;;;;;;;;;;5094812;28;20241;-78
2021/12/04 15:34:12;;;;;;;26.75;25.05;;;;;;;;;;5093932;28;20190;-78
2021/12/04 15:36:42;;;;;;;25.20;23.70;;;;;;;;;;5094347;28;20630;-78
2021/12/04 15:39:14;;;;;;;27.40;25.48;;;;;;;;;;5094545;28;20221;-78
2021/12/04 15:41:57;;;;;;;24.08;22.48;;;;;;;;;;5094615;28;20273;-78
2021/12/04 15:44:41;;;;;;;25.40;23.80;;;;;;;;;;5094176;28;20185;-78
2021/12/04 15:47:17;;;;;;;25.75;24.13;;;;;;;;;;5094513;28;20197;-78
2021/12/04 15:50:16;;;;;;;26.63;24.83;;;;;;;;;;5094347;28;20192;-78
2021/12/04 15:53:04;;;;;;;25.05;23.38;;;;;;;;;;5093678;28;20717;-77
2021/12/04 15:55:35;;;;;;;25.13;23.58;;;;;;;;;;5094423;28;20192;-78
2021/12/04 15:58:05;;;;;;;25.98;24.27;;;;;;;;;;5094310;28;20267;-78
2021/12/04 16:00:33;;;;;;;25.98;24.33;;;;;;;;;;5093588;28;20229;-88
2021/12/04 16:03:01;;;;;;;26.00;24.30;;;;;;;;;;5094454;28;20194;-78
2021/12/04 16:05:33;;;;;;;28.77;26.83;;;;;;;;;;5107594;28;20199;-78
2021/12/04 16:08:02;;;;;;;30.35;28.27;;;;;;;;;;5114099;28;20594;-78
2021/12/04 16:10:30;;;;;;;29.90;27.75;;;;;;;;;;5114468;28;20206;-78
2021/12/04 16:12:58;;;;;;;28.83;26.83;;;;;;;;;;5114295;28;20223;-78
2021/12/04 16:15:26;;;;;;;30.83;28.50;;;;;;;;;;5114315;28;20539;-78
2021/12/04 16:17:54;;;;;;;32.85;30.55;;;;;;;;;;5114263;28;20538;-78
2021/12/04 16:20:22;;;;;;;27.90;26.00;;;;;;;;;;5113901;28;20201;-79
2021/12/04 16:22:52;;;;;;;29.23;26.83;;;;;;;;;;5114254;28;20208;-78
2021/12/04 16:25:21;;;;;;;27.92;26.13;;;;;;;;;;5114223;28;20204;-78
2021/12/04 16:27:55;;;;;;;28.55;26.65;;;;;;;;;;5114343;28;20188;-78
2021/12/04 16:30:34;;;;;;;36.08;32.97;;;;;;;;;;5113664;28;20553;-78
2021/12/04 16:33:10;;;;;;;28.10;25.95;;;;;;;;;;5113713;28;20220;-78
2021/12/04 16:35:46;;;;;;;28.33;26.48;;;;;;;;;;5114008;28;20189;-78
2021/12/04 16:38:16;;;;;;;30.08;27.77;;;;;;;;;;5113769;28;20199;-78
2021/12/04 16:40:45;;;;;;;29.00;26.90;;;;;;;;;;5113870;28;20188;-78
2021/12/04 16:43:16;;;;;;;27.33;25.52;;;;;;;;;;5114126;28;20214;-78
2021/12/04 16:45:46;;;;;;;31.10;28.70;;;;;;;;;;5112527;28;20204;-78
2021/12/04 16:48:14;;;;;;;31.85;29.25;;;;;;;;;;5113557;28;20189;-78
2021/12/04 16:56:27;;;;;;;27.38;25.58;;;;;;;;;;5113557;28;20254;-78
2021/12/04 16:58:55;;;;;;;31.48;29.08;;;;;;;;;;5113169;28;20197;-78
2021/12/04 17:01:23;;;;;;;35.30;32.30;;;;;;;;;;5113348;28;20219;-78
2021/12/04 17:03:50;;;;;;;30.95;28.55;;;;;;;;;;5113193;28;20647;-78
2021/12/04 17:06:19;;;;;;;33.03;30.40;;;;;;;;;;5092778;28;20241;-77
2021/12/04 17:08:48;;;;;;;28.40;26.27;;;;;;;;;;5093059;28;20195;-78
2021/12/04 17:11:15;;;;;;;26.30;24.50;;;;;;;;;;5093034;28;20188;-78
2021/12/04 17:13:43;;;;;;;27.20;25.30;;;;;;;;;;5092336;28;20236;-78